Time;durP1;ratioP1;P1;durP2;ratioP2;P2;SDS_P1;SDS_P2;PMS_P1;PMS_P2;Temp;Humidity;BMP_temperature;BMP_pressure;BME280_temperature;BME280_humidity;BME280_pressure;Samples;Min_cycle;Max_cycle;Signal;HPM_P1;HPM_P2
2022/05/10 00:01:36;;;;;;;11.32;4.28;;;15.40;70.70;;;;;;5034822;28;20022;-58
2022/05/10 00:04:03;;;;;;;8.23;4.30;;;15.40;71.00;;;;;;5029514;28;20028;-59
2022/05/10 00:06:34;;;;;;;10.07;3.83;;;15.40;71.00;;;;;;5039600;28;20076;-56
2022/05/10 00:09:00;;;;;;;6.00;3.70;;;15.40;71.10;;;;;;5029695;28;20035;-56
2022/05/10 00:11:26;;;;;;;9.95;4.22;;;15.50;71.10;;;;;;5031663;28;20128;-57
2022/05/10 00:13:51;;;;;;;14.07;4.97;;;15.50;71.20;;;;;;5047171;28;20124;-57
2022/05/10 00:16:18;;;;;;;6.75;3.70;;;15.50;71.10;;;;;;5038060;28;20025;-57
2022/05/10 00:18:45;;;;;;;19.42;5.13;;;15.50;71.30;;;;;;5037465;28;20026;-57
2022/05/10 00:21:12;;;;;;;7.75;4.20;;;15.50;71.20;;;;;;5037254;28;20021;-58
2022/05/10 00:23:38;;;;;;;10.52;4.28;;;15.50;71.40;;;;;;5038742;28;20029;-57
2022/05/10 00:26:04;;;;;;;8.25;3.75;;;15.50;71.20;;;;;;5020716;28;20373;-58
2022/05/10 00:28:29;;;;;;;10.82;4.60;;;15.60;71.60;;;;;;5049063;28;20396;-57
2022/05/10 00:30:55;;;;;;;8.38;4.07;;;15.60;71.70;;;;;;5038251;28;20485;-58
2022/05/10 00:33:27;;;;;;;9.88;4.05;;;15.50;72.00;;;;;;5030117;28;20032;-58
2022/05/10 00:35:53;;;;;;;19.55;4.85;;;15.60;72.10;;;;;;5046392;28;20029;-57
2022/05/10 00:38:24;;;;;;;10.23;4.40;;;15.40;72.30;;;;;;5037007;28;20479;-58
2022/05/10 00:40:50;;;;;;;18.20;5.03;;;15.50;73.00;;;;;;5026203;28;20026;-57
2022/05/10 00:43:27;;;;;;;14.85;5.68;;;15.50;72.60;;;;;;5047405;28;20356;-58
2022/05/10 00:46:14;;;;;;;8.15;3.95;;;15.50;72.40;;;;;;5038505;28;20064;-58
2022/05/10 00:49:25;;;;;;;7.03;3.25;;;15.50;72.20;;;;;;5030148;28;20512;-58
2022/05/10 00:52:29;;;;;;;8.18;3.55;;;15.50;72.10;;;;;;4986754;28;20160;-58
2022/05/10 00:55:05;;;;;;;12.25;3.83;;;15.50;72.10;;;;;;4978384;28;20035;-58
2022/05/10 00:57:49;;;;;;;11.05;4.47;;;15.50;72.30;;;;;;4970002;28;20214;-57
2022/05/10 01:00:27;;;;;;;10.57;3.90;;;15.50;72.80;;;;;;4962344;28;20027;-57
2022/05/10 01:03:14;;;;;;;7.55;3.92;;;15.50;72.60;;;;;;4985183;28;20093;-57
2022/05/10 01:05:44;;;;;;;8.25;3.75;;;15.50;72.20;;;;;;4979491;28;20030;-57
2022/05/10 01:08:18;;;;;;;8.85;3.97;;;15.70;71.90;;;;;;4959955;28;20035;-57
2022/05/10 01:11:13;;;;;;;9.25;4.93;;;15.70;71.70;;;;;;4977564;28;20042;-57
2022/05/10 01:13:52;;;;;;;6.82;3.83;;;15.80;71.50;;;;;;4968575;28;20038;-57
2022/05/10 01:16:20;;;;;;;11.88;4.70;;;15.80;71.90;;;;;;4966845;28;20039;-58
2022/05/10 01:18:47;;;;;;;12.95;4.97;;;15.70;72.30;;;;;;4971979;28;20424;-57
2022/05/10 01:21:44;;;;;;;9.75;4.47;;;15.70;72.80;;;;;;4970610;28;20030;-58
2022/05/10 01:24:18;;;;;;;9.90;4.50;;;15.60;73.00;;;;;;5013297;28;20136;-57
2022/05/10 01:27:02;;;;;;;13.52;4.80;;;15.60;73.60;;;;;;5027031;28;20139;-56
2022/05/10 01:29:48;;;;;;;9.77;5.15;;;15.50;73.90;;;;;;5026111;28;20045;-57
2022/05/10 01:35:20;;;;;;;9.75;5.43;;;15.50;74.40;;;;;;5032834;28;20048;-57
2022/05/10 01:37:51;;;;;;;9.45;5.40;;;15.40;74.60;;;;;;5042682;28;20496;-58
2022/05/10 01:40:30;;;;;;;16.42;5.70;;;15.40;74.80;;;;;;5029751;28;20036;-57
2022/05/10 01:43:09;;;;;;;9.85;5.22;;;15.40;75.00;;;;;;5025976;28;20037;-58
2022/05/10 01:45:45;;;;;;;12.25;4.88;;;15.40;75.10;;;;;;5039302;28;20025;-56
2022/05/10 01:48:16;;;;;;;12.80;4.97;;;15.40;75.20;;;;;;5031341;28;20025;-57
2022/05/10 01:50:56;;;;;;;10.07;5.45;;;15.40;75.50;;;;;;5038065;28;20404;-57
2022/05/10 01:53:36;;;;;;;12.02;5.72;;;15.40;75.50;;;;;;5037991;28;20045;-57
2022/05/10 01:56:09;;;;;;;13.73;6.13;;;15.40;75.60;;;;;;5037681;28;20032;-56
2022/05/10 01:58:37;;;;;;;14.77;5.90;;;15.30;75.60;;;;;;5033378;28;20032;-57
2022/05/10 02:01:06;;;;;;;11.50;5.85;;;15.30;75.90;;;;;;5033261;28;20029;-59
2022/05/10 02:04:04;;;;;;;17.25;8.80;;;15.30;76.20;;;;;;5046644;28;20029;-56
2022/05/10 02:06:39;;;;;;;15.85;9.63;;;15.30;76.50;;;;;;5032904;28;20595;-57
2022/05/10 02:09:28;;;;;;;16.30;9.10;;;15.30;77.10;;;;;;5029582;28;20025;-57
2022/05/10 02:11:59;;;;;;;21.02;9.88;;;15.20;77.70;;;;;;5040796;28;20052;-57
2022/05/10 02:14:40;;;;;;;14.00;9.52;;;15.10;78.10;;;;;;5033467;28;20367;-57
2022/05/10 02:17:13;;;;;;;17.02;10.00;;;15.10;78.50;;;;;;5030016;28;20465;-56
2022/05/10 02:20:05;;;;;;;15.63;10.20;;;15.00;79.00;;;;;;5048325;28;20060;-57
2022/05/10 02:22:38;;;;;;;21.77;9.25;;;15.00;79.40;;;;;;5014143;28;20026;-57
2022/05/10 02:25:20;;;;;;;17.35;9.88;;;15.00;79.70;;;;;;5034348;28;20065;-57
2022/05/10 02:27:56;;;;;;;19.95;10.32;;;14.90;79.90;;;;;;5017922;28;20087;-56
2022/05/10 02:30:26;;;;;;;18.63;9.10;;;15.00;79.90;;;;;;5040992;28;20037;-57
2022/05/10 02:33:08;;;;;;;17.02;10.02;;;15.00;79.90;;;;;;5047656;28;20094;-57
2022/05/10 02:35:36;;;;;;;19.50;10.02;;;15.00;80.10;;;;;;5038939;28;20037;-57
2022/05/10 02:38:05;;;;;;;16.35;10.68;;;15.00;80.20;;;;;;5033553;28;20069;-57
2022/05/10 02:40:32;;;;;;;20.92;10.35;;;14.90;80.10;;;;;;5042271;28;20032;-57
2022/05/10 02:42:59;;;;;;;19.20;10.18;;;14.90;80.20;;;;;;5026502;28;20033;-57
2022/05/10 02:45:26;;;;;;;18.88;11.15;;;14.90;80.30;;;;;;5038269;28;20017;-58
2022/05/10 02:47:52;;;;;;;18.75;10.77;;;14.90;80.60;;;;;;5042369;28;20021;-58
2022/05/10 02:50:23;;;;;;;19.20;11.02;;;14.80;81.10;;;;;;5032648;28;20025;-57
2022/05/10 02:52:50;;;;;;;17.52;11.40;;;14.80;82.30;;;;;;5030362;28;20037;-57
2022/05/10 02:55:21;;;;;;;21.50;11.57;;;14.70;81.90;;;;;;5032462;28;20032;-57
2022/05/10 02:57:50;;;;;;;19.27;11.10;;;14.60;82.10;;;;;;5029915;28;20469;-57
2022/05/10 03:00:16;;;;;;;19.77;11.30;;;14.70;81.90;;;;;;5031069;28;20057;-56
2022/05/10 03:02:48;;;;;;;21.55;10.18;;;14.60;81.30;;;;;;5047682;28;20372;-57
2022/05/10 03:05:14;;;;;;;19.55;11.30;;;14.70;81.00;;;;;;5040491;28;20382;-57
2022/05/10 03:07:40;;;;;;;16.42;10.25;;;14.70;80.80;;;;;;5035630;28;20038;-57
2022/05/10 03:10:07;;;;;;;16.20;9.52;;;14.60;80.80;;;;;;5045098;28;20086;-57
2022/05/10 03:12:33;;;;;;;15.07;9.88;;;14.70;80.10;;;;;;5032038;28;20048;-57
2022/05/10 03:14:59;;;;;;;13.98;8.70;;;14.60;79.90;;;;;;5041570;28;20411;-56
2022/05/10 03:17:25;;;;;;;10.85;5.97;;;14.60;78.70;;;;;;5037353;28;20469;-57
2022/05/10 03:19:51;;;;;;;11.93;6.32;;;14.70;74.70;;;;;;5038479;28;20025;-57
2022/05/10 03:22:17;;;;;;;8.73;4.25;;;14.70;74.30;;;;;;5037090;28;20028;-57
2022/05/10 03:24:43;;;;;;;7.53;3.75;;;14.90;70.50;;;;;;5037535;28;20034;-57
2022/05/10 03:27:10;;;;;;;6.63;3.38;;;15.00;67.70;;;;;;5038664;28;20033;-57
2022/05/10 03:29:39;;;;;;;5.38;3.53;;;15.10;66.70;;;;;;5038196;28;20026;-57
2022/05/10 03:32:06;;;;;;;6.40;3.40;;;15.10;66.90;;;;;;5037855;28;20033;-57
2022/05/10 03:37:16;;;;;;;5.72;3.55;;;15.00;66.80;;;;;;5024811;28;20036;-57
2022/05/10 03:39:42;;;;;;;6.95;4.00;;;15.00;67.10;;;;;;5033716;28;20026;-57
2022/05/10 03:42:09;;;;;;;8.55;4.50;;;14.90;68.20;;;;;;5033936;28;20527;-58
2022/05/10 03:44:35;;;;;;;6.57;4.35;;;14.80;69.00;;;;;;5038081;28;20108;-57
2022/05/10 03:47:01;;;;;;;9.27;5.57;;;14.80;69.70;;;;;;5031738;28;20033;-57
2022/05/10 03:49:27;;;;;;;8.45;5.38;;;14.70;70.10;;;;;;5036183;28;20030;-57
2022/05/10 03:51:56;;;;;;;7.03;4.78;;;14.60;70.30;;;;;;5030020;28;20057;-58
2022/05/10 03:54:25;;;;;;;8.15;5.13;;;14.60;71.40;;;;;;5031279;28;20037;-57
2022/05/10 03:56:51;;;;;;;11.18;5.30;;;14.50;72.00;;;;;;5047287;28;20492;-57
2022/05/10 03:59:20;;;;;;;11.23;6.45;;;14.50;72.90;;;;;;5033381;28;20033;-57
2022/05/10 04:01:47;;;;;;;10.68;6.80;;;14.40;74.10;;;;;;5043211;28;20023;-57
2022/05/10 04:04:13;;;;;;;12.63;7.93;;;14.40;75.00;;;;;;5030019;28;20106;-58
2022/05/10 04:06:39;;;;;;;12.15;7.47;;;14.30;76.60;;;;;;5030529;28;20018;-57
2022/05/10 04:09:05;;;;;;;12.98;8.05;;;14.30;77.50;;;;;;5038103;28;20028;-57
2022/05/10 04:11:31;;;;;;;16.92;8.70;;;14.20;79.20;;;;;;5034471;28;20400;-57
2022/05/10 04:13:56;;;;;;;14.13;9.02;;;14.10;81.00;;;;;;5040293;28;20033;-57
2022/05/10 04:16:22;;;;;;;13.38;9.63;;;13.90;82.10;;;;;;5033836;28;20046;-57
2022/05/10 04:18:48;;;;;;;16.23;11.20;;;13.90;82.80;;;;;;5038153;28;20025;-57
2022/05/10 04:21:14;;;;;;;18.45;10.57;;;13.90;83.30;;;;;;5031221;28;20025;-57
2022/05/10 04:23:40;;;;;;;21.00;11.23;;;13.80;84.00;;;;;;5033901;28;20432;-57
2022/05/10 04:26:10;;;;;;;20.92;11.02;;;13.80;84.70;;;;;;5035957;28;20048;-58
2022/05/10 04:28:36;;;;;;;21.63;11.85;;;13.80;85.50;;;;;;5040151;28;20477;-57
2022/05/10 04:31:03;;;;;;;22.95;11.68;;;13.70;86.20;;;;;;5035726;28;20025;-59
2022/05/10 04:33:29;;;;;;;19.75;13.02;;;13.70;87.10;;;;;;5031049;28;20397;-58
2022/05/10 04:35:55;;;;;;;19.13;11.95;;;13.60;87.90;;;;;;5037409;28;20022;-57
2022/05/10 04:38:21;;;;;;;20.20;11.52;;;13.50;88.40;;;;;;5042363;28;20476;-57
2022/05/10 04:43:34;;;;;;;20.50;12.48;;;13.40;90.00;;;;;;5045328;28;20523;-57
2022/05/10 04:46:00;;;;;;;23.70;13.13;;;13.40;90.20;;;;;;5028686;28;20053;-57
2022/05/10 04:48:25;;;;;;;20.20;13.85;;;13.40;90.40;;;;;;5037094;28;20036;-57
2022/05/10 04:50:52;;;;;;;23.90;12.68;;;13.40;90.50;;;;;;5032853;28;20432;-56
2022/05/10 04:53:18;;;;;;;22.77;12.93;;;13.40;90.60;;;;;;5033250;28;20035;-57
2022/05/10 04:55:43;;;;;;;21.23;13.57;;;13.40;90.80;;;;;;5032719;28;20025;-57
2022/05/10 04:58:09;;;;;;;19.33;12.73;;;13.30;90.90;;;;;;5031879;28;20024;-57
2022/05/10 05:00:35;;;;;;;23.52;13.25;;;13.30;91.00;;;;;;5035223;28;20392;-57
2022/05/10 05:03:00;;;;;;;25.70;14.25;;;13.30;91.00;;;;;;5032027;28;20068;-58
2022/05/10 05:05:26;;;;;;;26.00;14.23;;;13.30;91.00;;;;;;5033757;28;20135;-57
2022/05/10 05:07:52;;;;;;;22.63;14.93;;;13.30;91.10;;;;;;5028676;28;20116;-57
2022/05/10 05:10:17;;;;;;;28.65;14.00;;;13.40;90.80;;;;;;5035974;28;20101;-57
2022/05/10 05:12:43;;;;;;;18.83;11.95;;;13.40;90.80;;;;;;5033630;28;20060;-57
2022/05/10 05:15:11;;;;;;;21.75;11.48;;;13.40;90.60;;;;;;5033956;28;20040;-57
2022/05/10 05:17:37;;;;;;;19.52;11.15;;;13.40;90.60;;;;;;5033277;28;20029;-57
2022/05/10 05:20:04;;;;;;;17.50;11.68;;;13.40;90.60;;;;;;5036014;28;20093;-57
2022/05/10 05:22:30;;;;;;;20.98;10.38;;;13.40;90.40;;;;;;5041658;28;20107;-57
2022/05/10 05:24:56;;;;;;;16.38;10.55;;;13.40;90.30;;;;;;5045291;28;20112;-57
2022/05/10 05:27:22;;;;;;;16.55;10.68;;;13.40;90.40;;;;;;5024865;28;20087;-58
2022/05/10 05:29:48;;;;;;;17.40;10.20;;;13.40;90.30;;;;;;5036244;28;20436;-59
2022/05/10 05:32:18;;;;;;;19.63;10.63;;;13.40;90.20;;;;;;5025066;28;20030;-56
2022/05/10 05:34:43;;;;;;;17.17;10.63;;;13.40;90.30;;;;;;5033556;28;20444;-58
2022/05/10 05:39:53;;;;;;;15.13;9.40;;;13.40;90.80;;;;;;5035019;28;20040;-58
2022/05/10 05:42:19;;;;;;;14.23;9.50;;;13.40;90.30;;;;;;5045402;28;20033;-56
2022/05/10 05:44:45;;;;;;;16.02;9.90;;;13.40;90.40;;;;;;5049063;28;20023;-59
2022/05/10 05:47:11;;;;;;;20.27;10.05;;;13.40;90.50;;;;;;5028657;28;20033;-57
2022/05/10 05:49:37;;;;;;;16.55;9.15;;;13.40;90.40;;;;;;5038209;28;20029;-57
2022/05/10 05:52:03;;;;;;;18.27;11.02;;;13.50;90.20;;;;;;5037501;28;20032;-57
2022/05/10 05:54:31;;;;;;;16.08;10.57;;;13.50;90.30;;;;;;5031782;28;20378;-57
2022/05/10 05:57:07;;;;;;;16.05;9.20;;;13.60;90.10;;;;;;5038913;28;20025;-57
2022/05/10 05:59:33;;;;;;;17.17;9.52;;;13.70;89.70;;;;;;5028448;28;20029;-58
2022/05/10 06:01:59;;;;;;;15.70;9.10;;;13.70;89.20;;;;;;5034145;28;20428;-58
2022/05/10 06:04:25;;;;;;;16.23;9.73;;;13.80;89.30;;;;;;5026986;28;20491;-58
2022/05/10 06:06:51;;;;;;;19.65;10.25;;;13.80;89.40;;;;;;5032775;28;20504;-58
2022/05/10 06:09:22;;;;;;;17.98;9.95;;;13.80;89.70;;;;;;5029497;28;20033;-58
2022/05/10 06:11:49;;;;;;;20.50;9.82;;;14.00;89.10;;;;;;5034848;28;20524;-59
2022/05/10 06:14:15;;;;;;;19.05;10.10;;;14.10;88.20;;;;;;5029132;28;20037;-58
2022/05/10 06:16:42;;;;;;;15.15;9.30;;;14.30;88.00;;;;;;5036480;28;20384;-59
2022/05/10 06:19:12;;;;;;;17.25;8.70;;;14.20;87.70;;;;;;5030617;28;20056;-59
2022/05/10 06:21:39;;;;;;;12.75;8.63;;;14.30;87.20;;;;;;5036956;28;20190;-57
2022/05/10 06:24:06;;;;;;;15.88;9.77;;;14.30;87.30;;;;;;5038607;28;20068;-58
2022/05/10 06:26:31;;;;;;;17.13;9.43;;;14.40;87.50;;;;;;5035534;28;20060;-57
2022/05/10 06:28:57;;;;;;;21.60;8.85;;;14.50;87.10;;;;;;5027114;28;20084;-57
2022/05/10 06:31:23;;;;;;;18.52;8.52;;;14.60;86.90;;;;;;5035640;28;20112;-58
2022/05/10 06:33:49;;;;;;;18.23;9.80;;;14.50;87.10;;;;;;5034981;28;20040;-58
2022/05/10 06:36:14;;;;;;;22.05;9.50;;;14.50;87.10;;;;;;5036155;28;20025;-58
2022/05/10 06:38:40;;;;;;;18.80;9.30;;;14.60;86.60;;;;;;5041064;28;20487;-58
2022/05/10 06:41:06;;;;;;;19.40;9.70;;;14.70;86.20;;;;;;5037850;28;20044;-58
2022/05/10 06:43:35;;;;;;;15.10;9.63;;;14.60;86.20;;;;;;5041950;28;20492;-58
2022/05/10 06:46:16;;;;;;;19.70;9.43;;;14.60;86.30;;;;;;5039234;28;20025;-58
2022/05/10 06:48:45;;;;;;;21.23;10.65;;;14.60;87.60;;;;;;5034169;28;20483;-58
2022/05/10 06:51:12;;;;;;;16.02;8.45;;;14.50;87.20;;;;;;5029038;28;20036;-58
2022/05/10 06:53:38;;;;;;;17.52;9.40;;;14.70;86.50;;;;;;5032886;28;20557;-59
2022/05/10 06:56:04;;;;;;;18.17;9.35;;;15.00;85.80;;;;;;5030390;28;20465;-58
2022/05/10 06:58:31;;;;;;;14.95;7.85;;;15.10;84.50;;;;;;5035248;28;20401;-58
2022/05/10 07:00:57;;;;;;;14.52;7.38;;;14.90;84.70;;;;;;5049041;28;20028;-58
2022/05/10 07:03:30;;;;;;;14.15;8.80;;;14.80;85.20;;;;;;5041689;28;20029;-58
2022/05/10 07:05:56;;;;;;;12.52;7.45;;;14.80;85.50;;;;;;5041197;28;20021;-58
2022/05/10 07:08:22;;;;;;;18.48;9.07;;;14.80;85.30;;;;;;5043726;28;20032;-59
2022/05/10 07:10:48;;;;;;;11.82;7.72;;;14.70;85.60;;;;;;5047964;28;20511;-59
2022/05/10 07:13:19;;;;;;;20.05;8.73;;;14.70;86.00;;;;;;5037922;28;20056;-58
2022/05/10 07:15:46;;;;;;;12.65;8.60;;;14.70;86.00;;;;;;5042967;28;20432;-59
2022/05/10 07:18:12;;;;;;;12.95;7.40;;;14.50;86.70;;;;;;5041852;28;20021;-58
2022/05/10 07:20:38;;;;;;;12.48;6.70;;;14.50;86.50;;;;;;5050157;28;20395;-59
2022/05/10 07:23:05;;;;;;;13.18;7.95;;;14.50;86.80;;;;;;5050303;28;20108;-59
2022/05/10 07:25:31;;;;;;;16.60;7.95;;;14.50;87.20;;;;;;5049987;28;20043;-59
2022/05/10 07:27:57;;;;;;;21.35;8.85;;;14.60;87.00;;;;;;5033969;28;20029;-59
2022/05/10 07:30:25;;;;;;;12.27;6.60;;;14.80;86.40;;;;;;5045728;28;20029;-58
2022/05/10 07:32:52;;;;;;;14.48;7.68;;;14.90;85.20;;;;;;5041927;28;20025;-58
2022/05/10 07:36:23;;;;;;;13.27;6.70;;;14.90;85.50;;;;;;5045941;28;20461;-59
2022/05/10 07:38:13;;;;;;;22.67;8.65;;;15.00;84.80;;;;;;5027775;28;20029;-57
2022/05/10 07:40:40;;;;;;;10.32;7.00;;;15.10;84.20;;;;;;5048562;28;20035;-58
2022/05/10 07:43:06;;;;;;;14.80;6.78;;;15.20;84.10;;;;;;5045803;28;20159;-59
2022/05/10 07:45:33;;;;;;;10.02;5.82;;;15.30;83.30;;;;;;5051192;28;20028;-58
2022/05/10 07:47:59;;;;;;;15.88;7.05;;;15.40;82.90;;;;;;5045233;28;20024;-58
2022/05/10 07:50:25;;;;;;;18.25;5.57;;;15.40;82.90;;;;;;5041054;28;21547;-58
2022/05/10 07:52:51;;;;;;;11.07;5.55;;;15.70;81.80;;;;;;5047885;28;20029;-58
2022/05/10 07:55:18;;;;;;;12.02;5.80;;;15.80;80.70;;;;;;5049510;28;20024;-59
2022/05/10 07:57:44;;;;;;;7.45;6.00;;;15.90;80.20;;;;;;5025580;28;20033;-59
2022/05/10 08:00:12;;;;;;;10.00;5.70;;;15.70;81.00;;;;;;5038400;28;20036;-57
2022/05/10 08:02:44;;;;;;;8.15;5.10;;;15.70;81.10;;;;;;5037928;28;20035;-58
2022/05/10 08:05:19;;;;;;;7.83;4.77;;;15.60;81.60;;;;;;5042854;28;20529;-58
2022/05/10 08:07:45;;;;;;;13.52;4.78;;;15.60;81.50;;;;;;5045052;28;20480;-58
2022/05/10 08:10:11;;;;;;;12.30;5.15;;;15.50;81.80;;;;;;5042908;28;20057;-58
2022/05/10 08:12:37;;;;;;;13.35;5.40;;;15.30;82.30;;;;;;5039124;28;20093;-58
2022/05/10 08:15:04;;;;;;;14.98;6.78;;;15.30;82.60;;;;;;5048328;28;20044;-58
2022/05/10 08:17:31;;;;;;;12.65;7.03;;;15.20;83.40;;;;;;5046350;28;20068;-57
2022/05/10 08:19:57;;;;;;;16.40;7.22;;;15.40;83.10;;;;;;5043248;28;20076;-57
2022/05/10 08:22:23;;;;;;;12.60;6.32;;;15.40;83.40;;;;;;5038130;28;20017;-58
2022/05/10 08:24:49;;;;;;;13.35;6.43;;;15.30;83.30;;;;;;5038225;28;20021;-57
2022/05/10 08:27:15;;;;;;;12.07;6.85;;;15.10;84.40;;;;;;5056022;28;20064;-58
2022/05/10 08:29:41;;;;;;;14.30;7.30;;;14.90;85.00;;;;;;5047336;28;20024;-58
2022/05/10 08:32:08;;;;;;;18.58;7.97;;;14.90;85.60;;;;;;5039496;28;20034;-59
2022/05/10 08:34:35;;;;;;;15.93;6.55;;;14.90;86.40;;;;;;5045280;28;20044;-58
2022/05/10 08:37:04;;;;;;;13.82;7.38;;;14.80;85.70;;;;;;5042062;28;20109;-58
2022/05/10 08:39:31;;;;;;;15.10;6.22;;;14.80;86.00;;;;;;5043581;28;20060;-58
2022/05/10 08:42:23;;;;;;;11.65;7.03;;;14.80;85.90;;;;;;5041644;28;20434;-59
2022/05/10 08:44:59;;;;;;;;;;;14.80;86.30;;;;;;5044524;28;20025;-59
2022/05/10 08:47:26;;;;;;;14.88;6.65;;;14.70;86.40;;;;;;5041653;28;20002;-58
2022/05/10 08:49:58;;;;;;;16.83;7.43;;;14.60;86.60;;;;;;5032546;28;20492;-59
2022/05/10 08:52:30;;;;;;;13.82;6.93;;;14.60;87.10;;;;;;5027108;28;20071;-59
2022/05/10 08:54:56;;;;;;;;;;;14.50;87.40;;;;;;5022833;28;20180;-59
2022/05/10 08:57:46;;;;;;;11.55;6.85;;;14.40;87.70;;;;;;5026437;28;19988;-59
2022/05/10 09:00:34;;;;;;;12.95;6.80;;;14.50;88.30;;;;;;5033906;28;20040;-58
2022/05/10 09:03:05;;;;;;;11.90;6.03;;;14.60;87.80;;;;;;5026921;28;20049;-59
2022/05/10 09:05:41;;;;;;;17.10;7.80;;;14.60;87.40;;;;;;5029982;28;20599;-58
2022/05/10 09:08:21;;;;;;;14.00;6.30;;;14.70;87.70;;;;;;5030005;28;20091;-58
2022/05/10 09:10:53;;;;;;;12.57;6.95;;;14.60;88.00;;;;;;5035284;28;20079;-59
2022/05/10 09:13:21;;;;;;;11.35;6.60;;;14.80;87.90;;;;;;5032959;28;20081;-59
2022/05/10 09:16:02;;;;;;;9.68;4.93;;;15.00;86.80;;;;;;5027569;28;20041;-58
2022/05/10 09:18:31;;;;;;;14.40;6.55;;;14.80;86.00;;;;;;5029308;28;20473;-59
2022/05/10 09:21:09;;;;;;;13.75;6.97;;;14.80;86.90;;;;;;5039465;28;20029;-59
2022/05/10 09:23:59;;;;;;;15.38;6.63;;;15.00;87.00;;;;;;5026949;28;20481;-57
2022/05/10 09:26:33;;;;;;;12.82;6.78;;;14.90;86.90;;;;;;5029447;28;20029;-58
2022/05/10 09:29:13;;;;;;;14.98;7.15;;;15.00;87.00;;;;;;5028652;28;20400;-58
2022/05/10 09:37:25;;;;;;;13.00;6.75;;;15.50;83.50;;;;;;5019041;28;20035;-59
2022/05/10 09:40:07;;;;;;;11.63;6.25;;;15.60;83.40;;;;;;5028056;28;20033;-59
2022/05/10 09:42:43;;;;;;;16.30;7.05;;;15.90;82.00;;;;;;5033277;28;20021;-58
2022/05/10 09:45:27;;;;;;;11.23;5.82;;;15.80;81.90;;;;;;5027684;28;21063;-58
2022/05/10 09:48:02;;;;;;;20.23;7.50;;;16.00;81.70;;;;;;5022417;28;20022;-58
2022/05/10 09:50:30;;;;;;;9.02;5.65;;;16.00;81.50;;;;;;5035040;28;20033;-58
2022/05/10 09:53:21;;;;;;;12.25;6.15;;;15.90;81.90;;;;;;5039845;28;20472;-56
2022/05/10 09:55:58;;;;;;;9.52;5.65;;;15.80;81.70;;;;;;5034775;28;20109;-59
2022/05/10 09:58:28;;;;;;;12.30;6.30;;;15.70;82.10;;;;;;5032628;28;20025;-57
2022/05/10 10:00:56;;;;;;;10.98;6.57;;;15.70;82.80;;;;;;5036023;28;20059;-57
2022/05/10 10:03:30;;;;;;;13.48;6.20;;;15.60;83.10;;;;;;5028836;28;20029;-57
2022/05/10 10:06:14;;;;;;;13.38;7.10;;;15.50;83.10;;;;;;5028848;28;20108;-58
2022/05/10 10:08:51;;;;;;;16.77;7.32;;;15.40;84.00;;;;;;5032548;28;20465;-57
2022/05/10 10:11:30;;;;;;;16.27;6.88;;;15.30;84.10;;;;;;5035068;28;20485;-57
2022/05/10 10:13:58;;;;;;;12.77;5.63;;;15.30;85.00;;;;;;5033189;28;20072;-57
2022/05/10 10:16:34;;;;;;;15.13;6.93;;;15.30;84.60;;;;;;5041115;28;20033;-57
2022/05/10 10:19:11;;;;;;;16.40;8.27;;;15.40;84.20;;;;;;5038768;28;20033;-58
2022/05/10 10:21:56;;;;;;;14.82;6.95;;;15.60;83.50;;;;;;5041278;28;20071;-57
2022/05/10 10:24:36;;;;;;;15.50;6.40;;;15.80;82.60;;;;;;5025450;28;20060;-58
2022/05/10 10:27:07;;;;;;;12.35;6.72;;;15.80;81.80;;;;;;5035420;28;20630;-58
2022/05/10 10:29:41;;;;;;;13.60;6.30;;;15.50;83.30;;;;;;5036890;28;20030;-58
2022/05/10 10:32:23;;;;;;;12.88;6.50;;;15.70;82.80;;;;;;5028083;28;20072;-57
2022/05/10 10:34:48;;;;;;;18.02;8.32;;;15.90;81.90;;;;;;5033572;28;20100;-58
2022/05/10 10:37:38;;;;;;;20.90;7.35;;;16.00;81.20;;;;;;5042133;28;20033;-59
2022/05/10 10:40:28;;;;;;;14.27;7.20;;;15.80;81.70;;;;;;5022182;28;20041;-58
2022/05/10 10:43:12;;;;;;;18.58;7.93;;;15.90;81.90;;;;;;5030683;28;20029;-58
2022/05/10 10:45:44;;;;;;;23.65;7.93;;;15.80;82.10;;;;;;5044512;28;20036;-59
2022/05/10 10:48:29;;;;;;;14.90;6.53;;;15.70;83.10;;;;;;5029816;28;20472;-59
2022/05/10 10:50:56;;;;;;;20.38;7.47;;;15.60;83.30;;;;;;5025373;28;20531;-58
2022/05/10 10:53:25;;;;;;;24.80;7.28;;;15.40;84.00;;;;;;5038652;28;20140;-58
2022/05/10 10:56:27;;;;;;;18.50;7.57;;;15.50;83.50;;;;;;5041723;28;20025;-59
2022/05/10 10:59:11;;;;;;;;;;;15.50;84.00;;;;;;5030269;28;20435;-59
2022/05/10 11:01:58;;;;;;;22.60;8.00;;;15.40;83.80;;;;;;5032533;28;19940;-59
2022/05/10 11:05:18;;;;;;;25.15;8.38;;;15.20;85.10;;;;;;5028741;28;20030;-58
2022/05/10 11:08:11;;;;;;;13.27;6.65;;;15.20;85.50;;;;;;5009206;28;20076;-57
2022/05/10 11:10:55;;;;;;;13.45;8.25;;;15.20;85.30;;;;;;5002788;28;20061;-58
2022/05/10 11:13:48;;;;;;;26.05;7.57;;;15.10;86.50;;;;;;5016493;28;20129;-57
2022/05/10 11:16:37;;;;;;;13.00;7.07;;;15.10;86.50;;;;;;4999621;28;20517;-58
2022/05/10 11:19:12;;;;;;;24.95;7.97;;;15.10;87.20;;;;;;5010435;28;20024;-58
2022/05/10 11:22:09;;;;;;;16.70;7.10;;;15.30;86.70;;;;;;5001743;28;20053;-58
2022/05/10 11:24:58;;;;;;;12.52;7.30;;;15.10;87.50;;;;;;5009191;28;20030;-58
2022/05/10 11:27:45;;;;;;;13.27;5.95;;;14.60;90.10;;;;;;5001905;28;20041;-57
2022/05/10 11:30:22;;;;;;;11.10;6.15;;;14.60;90.30;;;;;;5007383;28;20469;-58
2022/05/10 11:33:00;;;;;;;17.63;7.72;;;14.60;90.30;;;;;;5007286;28;20592;-58
2022/05/10 11:36:11;;;;;;;11.05;6.63;;;14.80;90.10;;;;;;5010315;28;20413;-58
2022/05/10 11:38:55;;;;;;;14.00;6.35;;;14.90;89.00;;;;;;4994826;28;20790;-58
2022/05/10 11:41:33;;;;;;;7.90;5.18;;;15.10;88.40;;;;;;5014007;28;20393;-58
2022/05/10 11:44:08;;;;;;;14.13;6.70;;;15.10;87.80;;;;;;5028895;28;20021;-58
2022/05/10 11:47:12;;;;;;;12.38;6.38;;;15.10;88.50;;;;;;5035469;28;20034;-57
2022/05/10 11:49:53;;;;;;;10.95;5.70;;;15.00;88.40;;;;;;5037163;28;20025;-58
2022/05/10 11:52:43;;;;;;;9.70;4.80;;;15.10;88.40;;;;;;5033210;28;20487;-58
2022/05/10 11:55:31;;;;;;;13.20;5.38;;;15.10;88.10;;;;;;5030309;28;20041;-57
2022/05/10 11:58:00;;;;;;;11.48;4.93;;;15.20;87.70;;;;;;5031192;28;20091;-57
2022/05/10 12:00:31;;;;;;;8.90;5.47;;;15.60;85.90;;;;;;5029833;28;20385;-57
2022/05/10 12:03:04;;;;;;;8.88;5.40;;;15.90;84.60;;;;;;5023869;28;20032;-58
2022/05/10 12:05:35;;;;;;;9.77;4.93;;;16.00;84.50;;;;;;5028263;28;20036;-58
2022/05/10 12:08:19;;;;;;;8.65;4.80;;;16.20;83.00;;;;;;5026247;28;20060;-58
2022/05/10 12:10:45;;;;;;;9.10;5.30;;;16.20;81.90;;;;;;5032317;28;20564;-58
2022/05/10 12:22:09;;;;;;;11.82;6.38;;;16.00;83.20;;;;;;5024872;28;20072;-57
2022/05/10 12:24:39;;;;;;;14.40;5.80;;;16.00;82.70;;;;;;5029746;28;20030;-58
2022/05/10 12:27:11;;;;;;;10.93;6.28;;;16.00;82.70;;;;;;5034087;28;20076;-58
2022/05/10 12:29:39;;;;;;;9.32;4.90;;;15.80;83.30;;;;;;5030588;28;20389;-58
2022/05/10 12:32:42;;;;;;;15.05;5.55;;;15.70;83.80;;;;;;5023757;28;20029;-58
2022/05/10 12:35:32;;;;;;;16.15;5.88;;;15.60;84.60;;;;;;5024947;28;20045;-57
2022/05/10 12:38:00;;;;;;;14.45;5.53;;;15.40;85.30;;;;;;5024489;28;20092;-57
2022/05/10 12:40:34;;;;;;;19.45;6.68;;;15.40;86.10;;;;;;5025566;28;20025;-57
2022/05/10 12:43:50;;;;;;;16.77;7.57;;;15.10;87.20;;;;;;5024358;28;20093;-57
2022/05/10 12:46:31;;;;;;;16.50;6.35;;;15.30;86.40;;;;;;5026508;28;20035;-58
2022/05/10 12:49:20;;;;;;;14.23;6.10;;;15.40;86.60;;;;;;5024724;28;20032;-58
2022/05/10 12:52:10;;;;;;;14.85;7.05;;;15.50;85.50;;;;;;5024410;28;20507;-57
2022/05/10 12:54:43;;;;;;;20.88;6.35;;;15.40;85.60;;;;;;5019580;28;20409;-58
2022/05/10 12:57:42;;;;;;;13.10;6.25;;;15.60;84.00;;;;;;5025293;28;20026;-57
2022/05/10 13:00:14;;;;;;;16.67;6.05;;;15.50;85.00;;;;;;5024421;28;20526;-57
2022/05/10 13:02:54;;;;;;;14.15;6.43;;;15.40;85.50;;;;;;5029355;28;20087;-58
2022/05/10 13:05:54;;;;;;;19.73;8.07;;;15.00;87.70;;;;;;5024113;28;20040;-57
2022/05/10 13:08:25;;;;;;;15.85;6.30;;;15.00;88.50;;;;;;5027703;28;20029;-58
2022/05/10 13:10:53;;;;;;;16.35;6.93;;;15.40;86.60;;;;;;5035948;28;20083;-58
2022/05/10 13:13:26;;;;;;;16.50;6.53;;;15.70;85.30;;;;;;5026333;28;20048;-57
2022/05/10 13:15:54;;;;;;;20.80;5.95;;;15.70;85.00;;;;;;5025096;28;20018;-57
2022/05/10 13:18:23;;;;;;;18.95;7.22;;;16.00;83.60;;;;;;5026018;28;20112;-59
2022/05/10 13:20:55;;;;;;;17.35;6.22;;;15.80;84.60;;;;;;5029747;28;20056;-57
2022/05/10 13:23:30;;;;;;;16.60;5.82;;;15.90;83.40;;;;;;5024090;28;20535;-58
2022/05/10 13:26:10;;;;;;;16.83;6.88;;;16.00;83.00;;;;;;5019451;28;20033;-58
2022/05/10 13:28:50;;;;;;;18.35;6.35;;;16.00;82.60;;;;;;5031891;28;20037;-57
2022/05/10 13:31:21;;;;;;;23.95;7.85;;;15.90;83.50;;;;;;5031136;28;20048;-58
2022/05/10 13:33:47;;;;;;;13.18;6.00;;;16.00;83.00;;;;;;5023366;28;20524;-58